createdAt,value
2018-06-18T00:01:09.304Z,99065.94
2018-06-18T00:03:38.827Z,99069.45
2018-06-18T00:06:08.460Z,99057.52
2018-06-18T00:08:37.829Z,99055.22
2018-06-18T00:11:07.394Z,99062.33
2018-06-18T00:13:36.993Z,99069.54
2018-06-18T00:16:06.911Z,99069.46
2018-06-18T00:18:36.481Z,99067.48
2018-06-18T00:21:06.080Z,99065.24
2018-06-18T00:23:35.442Z,99074.67
2018-06-18T00:26:05.323Z,99069.36
2018-06-18T00:28:34.928Z,99072.69
2018-06-18T00:31:04.536Z,99076.36
2018-06-18T00:33:34.120Z,99073.67
2018-06-18T00:36:03.753Z,99074.90
2018-06-18T00:38:33.420Z,99074.47
2018-06-18T00:41:02.805Z,99078.00
2018-06-18T00:43:32.257Z,99074.25
2018-06-18T00:46:01.597Z,99080.64
2018-06-18T00:48:31.151Z,99072.91
2018-06-18T00:51:00.500Z,99071.83
2018-06-18T00:53:29.879Z,98933.86
2018-06-18T00:56:07.625Z,99077.53
2018-06-18T00:58:37.059Z,99074.16
2018-06-18T01:01:06.580Z,99076.88
2018-06-18T01:03:36.324Z,99074.50
2018-06-18T01:06:05.967Z,99077.39
2018-06-18T01:08:35.688Z,99075.52
2018-06-18T01:11:05.346Z,99078.20
2018-06-18T01:13:34.928Z,99073.88
2018-06-18T01:16:04.903Z,99078.31
2018-06-18T01:18:34.446Z,99072.27
2018-06-18T01:21:03.789Z,99065.13
2018-06-18T01:24:47.245Z,98998.12
2018-06-18T01:27:16.645Z,99069.75
2018-06-18T01:29:45.961Z,99070.10
2018-06-18T01:32:15.365Z,99067.50
2018-06-18T01:34:44.911Z,99061.00
2018-06-18T01:37:14.522Z,99062.18
2018-06-18T01:39:43.872Z,99069.25
2018-06-18T01:42:13.275Z,99070.94
2018-06-18T01:44:42.602Z,99073.05
2018-06-18T01:47:12.028Z,99069.03
2018-06-18T01:49:42.080Z,99074.77
2018-06-18T01:52:11.580Z,99076.73
2018-06-18T01:54:40.912Z,99076.61
2018-06-18T01:57:10.308Z,99070.17
2018-06-18T01:59:39.756Z,99075.91
2018-06-18T02:02:09.371Z,99085.50
2018-06-18T02:04:39.922Z,99080.40
2018-06-18T02:07:09.305Z,99081.86
2018-06-18T02:09:38.820Z,99074.92
2018-06-18T02:12:08.443Z,99077.82
2018-06-18T02:14:37.791Z,99066.87
2018-06-18T02:17:07.133Z,99073.33
2018-06-18T02:19:36.887Z,99084.77
2018-06-18T02:22:06.863Z,99090.33
2018-06-18T02:24:36.212Z,99086.70
2018-06-18T02:27:10.948Z,99097.08
2018-06-18T02:29:45.398Z,99099.25
2018-06-18T02:32:19.904Z,99102.05
2018-06-18T02:34:54.547Z,99095.77
2018-06-18T02:37:29.551Z,99109.14
2018-06-18T02:40:10.022Z,99105.77
2018-06-18T02:42:39.351Z,99107.00
2018-06-18T02:45:14.809Z,99100.73
2018-06-18T02:47:44.160Z,99111.20
2018-06-18T02:50:13.671Z,99108.14
2018-06-18T02:52:43.108Z,99115.11
2018-06-18T02:55:15.068Z,98994.30
2018-06-18T02:57:44.997Z,99116.23
2018-06-18T03:00:14.985Z,99119.36
2018-06-18T03:02:44.340Z,99130.34
2018-06-18T03:05:13.842Z,99127.56
2018-06-18T03:07:43.188Z,99146.00
2018-06-18T03:10:12.532Z,99145.52
2018-06-18T03:12:41.884Z,99146.40
2018-06-18T03:15:11.697Z,99138.02
2018-06-18T03:17:41.048Z,99150.64
2018-06-18T03:20:17.592Z,99150.93
2018-06-18T03:22:53.192Z,99161.64
2018-06-18T03:25:27.764Z,99162.97
2018-06-18T03:28:02.415Z,99158.50
2018-06-18T03:30:31.989Z,99151.81
2018-06-18T03:33:01.372Z,99160.34
2018-06-18T03:35:30.927Z,99157.33
2018-06-18T03:38:01.461Z,99164.83
2018-06-18T03:40:31.212Z,99176.03
2018-06-18T03:43:01.604Z,99170.69
2018-06-18T03:45:33.059Z,99187.83
2018-06-18T03:48:05.433Z,99174.81
2018-06-18T03:50:45.771Z,99194.58
2018-06-18T03:53:15.229Z,99186.21
2018-06-18T03:55:50.261Z,99171.63
2018-06-18T03:58:19.709Z,99197.64
2018-06-18T04:01:35.381Z,99189.11
2018-06-18T04:04:12.111Z,99188.30
2018-06-18T04:06:46.735Z,99200.44
2018-06-18T04:09:21.532Z,99203.27
2018-06-18T04:11:56.537Z,99201.58
2018-06-18T04:14:25.900Z,99198.05
2018-06-18T04:16:58.155Z,99201.08
2018-06-18T04:19:27.736Z,99203.03
2018-06-18T04:21:57.341Z,99204.38
2018-06-18T04:24:26.914Z,99204.10
2018-06-18T04:26:57.649Z,99204.10
2018-06-18T04:29:27.029Z,99212.86
2018-06-18T04:31:56.396Z,99215.77
2018-06-18T04:34:34.288Z,99206.64
2018-06-18T04:37:04.454Z,99216.28
2018-06-18T04:39:34.023Z,99222.72
2018-06-18T04:42:08.845Z,99218.95
2018-06-18T04:44:43.677Z,99221.63
2018-06-18T04:47:18.896Z,98551.53
2018-06-18T04:49:53.681Z,99220.41
2018-06-18T04:52:23.312Z,99225.95
2018-06-18T04:54:53.467Z,99218.28
2018-06-18T04:57:22.811Z,99235.30
2018-06-18T05:00:11.248Z,99242.06
2018-06-18T05:02:40.872Z,99246.70
2018-06-18T05:05:16.577Z,99236.59
2018-06-18T05:07:48.585Z,99247.28
2018-06-18T05:10:25.613Z,99235.83
2018-06-18T05:12:55.815Z,99244.80
2018-06-18T05:15:28.649Z,99246.64
2018-06-18T05:17:58.075Z,99249.31
2018-06-18T05:20:27.752Z,99240.72
2018-06-18T05:22:57.579Z,99242.01
2018-06-18T05:25:27.452Z,99242.22
2018-06-18T05:27:57.151Z,99259.86
2018-06-18T05:30:30.380Z,99214.83
2018-06-18T05:33:01.167Z,99253.84
2018-06-18T05:35:30.545Z,99260.41
2018-06-18T05:38:10.331Z,99259.19
2018-06-18T05:40:39.784Z,99257.22
2018-06-18T05:43:09.468Z,99268.03
2018-06-18T05:45:38.836Z,99267.41
2018-06-18T05:48:08.248Z,99275.42
2018-06-18T05:50:37.642Z,99270.20
2018-06-18T05:53:07.149Z,99263.04
2018-06-18T05:55:51.019Z,99272.59
2018-06-18T05:58:20.682Z,99274.33
2018-06-18T06:00:50.323Z,99274.71
2018-06-18T06:03:19.681Z,99282.93
2018-06-18T06:05:49.669Z,99292.41
2018-06-18T06:08:19.191Z,99290.30
2018-06-18T06:10:48.630Z,99301.00
2018-06-18T06:13:17.988Z,99341.25
2018-06-18T06:15:47.399Z,99306.17
2018-06-18T06:18:16.772Z,99293.08
2018-06-18T06:20:52.316Z,99304.25
2018-06-18T06:23:21.706Z,99309.75
2018-06-18T06:25:51.603Z,99304.48
2018-06-18T06:28:21.406Z,99305.14
2018-06-18T06:30:50.780Z,99304.66
2018-06-18T06:33:20.448Z,99312.69
2018-06-18T06:35:50.513Z,99217.70
2018-06-18T06:38:20.089Z,99316.42
2018-06-18T06:40:49.815Z,99321.58
2018-06-18T06:43:19.148Z,99315.77
2018-06-18T06:45:48.565Z,99318.03
2018-06-18T06:48:17.959Z,99323.38
2018-06-18T06:50:48.300Z,99335.19
2018-06-18T06:53:17.884Z,99345.02
2018-06-18T06:55:47.227Z,99339.79
2018-06-18T06:58:16.588Z,99368.47
2018-06-18T07:00:46.396Z,99338.55
2018-06-18T07:03:16.068Z,99339.97
2018-06-18T07:05:45.636Z,99334.98
2018-06-18T07:08:14.984Z,99345.25
2018-06-18T07:10:47.584Z,99344.20
2018-06-18T07:13:17.238Z,99354.77
2018-06-18T07:15:46.843Z,99354.55
2018-06-18T07:18:16.155Z,99359.44
2018-06-18T07:20:45.523Z,99351.09
2018-06-18T07:23:15.240Z,99348.66
2018-06-18T07:25:44.670Z,99368.39
2018-06-18T07:28:14.599Z,99362.80
2018-06-18T07:30:44.217Z,99357.46
2018-06-18T07:33:13.736Z,99355.02
2018-06-18T07:35:43.148Z,99359.74
2018-06-18T07:38:12.958Z,99362.41
2018-06-18T07:40:42.491Z,99360.36
2018-06-18T07:43:11.828Z,99353.50
2018-06-18T07:45:41.286Z,99360.19
2018-06-18T07:48:10.848Z,99354.03
2018-06-18T07:50:40.191Z,99361.59
2018-06-18T07:53:09.740Z,99357.06
2018-06-18T07:55:39.112Z,99364.43
2018-06-18T07:58:08.527Z,99360.47
2018-06-18T08:00:37.951Z,99357.83
2018-06-18T08:03:07.446Z,99369.25
2018-06-18T08:05:36.883Z,99372.25
2018-06-18T08:08:06.264Z,99362.17
2018-06-18T08:10:35.767Z,99364.12
2018-06-18T08:13:05.123Z,99363.81
2018-06-18T08:15:34.688Z,99361.56
2018-06-18T08:18:04.294Z,99357.89
2018-06-18T08:20:33.920Z,99369.48
2018-06-18T08:23:03.308Z,99371.08
2018-06-18T08:25:32.801Z,99345.91
2018-06-18T08:28:02.168Z,99356.08
2018-06-18T08:30:31.491Z,99336.81
2018-06-18T08:33:00.981Z,99355.41
2018-06-18T08:35:30.734Z,99359.01
2018-06-18T08:38:00.273Z,99342.05
2018-06-18T08:40:29.848Z,99343.36
2018-06-18T08:42:59.162Z,99349.29
2018-06-18T08:45:28.788Z,99337.50
2018-06-18T08:47:58.647Z,99336.36
2018-06-18T08:50:33.393Z,99344.26
2018-06-18T08:53:08.463Z,99342.28
2018-06-18T08:55:43.092Z,99351.34
2018-06-18T08:58:17.772Z,99335.09
2018-06-18T09:00:52.447Z,99338.82
2018-06-18T09:03:22.804Z,99342.11
2018-06-18T09:05:54.895Z,99333.46
2018-06-18T09:08:27.180Z,99334.77
2018-06-18T09:10:56.515Z,99338.63
2018-06-18T09:13:25.864Z,99330.09
2018-06-18T09:15:55.561Z,99340.91
2018-06-18T09:18:24.986Z,99333.94
2018-06-18T09:20:54.596Z,99352.01
2018-06-18T09:23:23.939Z,99333.69
2018-06-18T09:25:58.675Z,99329.23
2018-06-18T09:28:29.831Z,99340.27
2018-06-18T09:30:59.437Z,99361.70
2018-06-18T09:33:29.088Z,99346.59
2018-06-18T09:35:58.697Z,99349.26
2018-06-18T09:38:28.025Z,99361.41
2018-06-18T09:40:57.608Z,99349.69
2018-06-18T09:43:26.953Z,99352.89
2018-06-18T09:45:56.282Z,99352.30
2018-06-18T09:48:31.111Z,99348.72
2018-06-18T09:51:05.946Z,99368.28
2018-06-18T09:53:40.608Z,99348.40
2018-06-18T09:56:15.252Z,99359.44
2018-06-18T09:58:49.940Z,99356.75
2018-06-18T10:01:24.837Z,99354.91
2018-06-18T10:03:54.481Z,99359.20
2018-06-18T10:06:25.268Z,99339.67
2018-06-18T10:08:54.636Z,99355.51
2018-06-18T10:11:24.154Z,99353.86
2018-06-18T10:13:53.624Z,99363.53
2018-06-18T10:16:22.932Z,99371.45
2018-06-18T10:18:52.263Z,99362.84
2018-06-18T10:21:21.815Z,99362.58
2018-06-18T10:23:51.508Z,99364.06
2018-06-18T10:26:20.836Z,99349.12
2018-06-18T10:28:50.252Z,99362.23
2018-06-18T10:31:19.857Z,99349.78
2018-06-18T10:33:54.592Z,99357.11
2018-06-18T10:36:29.312Z,99376.49
2018-06-18T10:39:03.940Z,99350.22
2018-06-18T10:41:38.510Z,99355.61
2018-06-18T10:44:08.198Z,99356.81
2018-06-18T10:46:37.523Z,99354.75
2018-06-18T10:49:06.876Z,99348.61
2018-06-18T10:51:36.227Z,99362.47
2018-06-18T10:54:05.576Z,99349.09
2018-06-18T10:56:34.904Z,99357.00
2018-06-18T10:59:04.323Z,99342.55
2018-06-18T11:01:34.479Z,99347.30
2018-06-18T11:04:04.064Z,99319.28
2018-06-18T11:06:38.324Z,99334.72
2018-06-18T11:09:11.360Z,99327.59
2018-06-18T11:11:40.705Z,99347.53
2018-06-18T11:14:10.032Z,99343.60
2018-06-18T11:16:40.025Z,99338.98
2018-06-18T11:19:14.551Z,99329.27
2018-06-18T11:21:49.575Z,99338.00
2018-06-18T11:24:26.677Z,99342.69
2018-06-18T11:26:57.654Z,99323.63
2018-06-18T11:29:27.144Z,99332.58
2018-06-18T11:31:56.580Z,99336.08
2018-06-18T11:34:26.160Z,99339.92
2018-06-18T11:36:55.768Z,99319.84
2018-06-18T11:39:25.213Z,99317.77
2018-06-18T11:41:54.804Z,99317.77
2018-06-18T11:44:24.228Z,99322.07
2018-06-18T11:46:53.596Z,99319.82
2018-06-18T11:49:23.209Z,99322.11
2018-06-18T11:51:52.701Z,99323.73
2018-06-18T11:54:22.144Z,99324.70
2018-06-18T11:56:51.684Z,99313.88
2018-06-18T11:59:26.480Z,99311.19
2018-06-18T12:02:01.060Z,99304.12
2018-06-18T12:04:35.813Z,99316.06
2018-06-18T12:07:13.422Z,99321.30
2018-06-18T12:09:44.333Z,99312.45
2018-06-18T12:12:13.980Z,99311.79
2018-06-18T12:14:43.568Z,99322.80
2018-06-18T12:17:12.935Z,99318.79
2018-06-18T12:19:42.760Z,99311.36
2018-06-18T12:22:12.438Z,99313.41
2018-06-18T12:24:41.974Z,99148.58
2018-06-18T12:27:14.364Z,99295.74
2018-06-18T12:29:43.961Z,99303.34
2018-06-18T12:32:13.337Z,99305.75
2018-06-18T12:34:42.867Z,99289.02
2018-06-18T12:37:12.233Z,99302.16
2018-06-18T12:39:41.783Z,99296.59
2018-06-18T12:42:11.404Z,99298.63
2018-06-18T12:44:46.054Z,99300.84
2018-06-18T12:47:20.592Z,99313.86
2018-06-18T12:49:55.147Z,99298.33
2018-06-18T12:52:29.726Z,99292.89
2018-06-18T12:57:43.044Z,99292.75
2018-06-18T13:00:12.440Z,99291.91
2018-06-18T13:02:45.645Z,99277.55
2018-06-18T13:05:15.041Z,99283.81
2018-06-18T13:07:44.375Z,99281.41
2018-06-18T13:10:13.765Z,99279.94
2018-06-18T13:12:43.243Z,99274.36
2018-06-18T13:15:12.612Z,99289.03
2018-06-18T13:17:41.947Z,99292.75
2018-06-18T13:20:11.592Z,99290.22
2018-06-18T13:22:41.060Z,99300.36
2018-06-18T13:25:10.692Z,99296.78
2018-06-18T13:27:45.254Z,99289.54
2018-06-18T13:30:15.170Z,99292.41
2018-06-18T13:32:44.556Z,99285.98
2018-06-18T13:35:15.104Z,99293.57
2018-06-18T13:37:49.686Z,99281.77
2018-06-18T13:40:24.434Z,99283.64
2018-06-18T13:42:59.160Z,99272.16
2018-06-18T13:45:34.939Z,99276.70
2018-06-18T13:48:09.424Z,99283.51
2018-06-18T13:50:38.861Z,99284.64
2018-06-18T13:53:08.634Z,99285.84
2018-06-18T13:55:37.981Z,99281.61
2018-06-18T13:58:08.512Z,99275.38
2018-06-18T14:00:38.364Z,99277.06
2018-06-18T14:03:07.711Z,99277.55
2018-06-18T14:05:37.294Z,99270.63
2018-06-18T14:08:06.633Z,99269.98
2018-06-18T14:10:36.196Z,99269.48
2018-06-18T14:13:05.906Z,99269.48
2018-06-18T14:15:35.281Z,99267.95
2018-06-18T14:18:05.337Z,99266.56
2018-06-18T14:20:34.963Z,99266.28
2018-06-18T14:23:04.416Z,99260.17
2018-06-18T14:25:34.028Z,99253.78
2018-06-18T14:28:03.376Z,99255.62
2018-06-18T14:30:37.914Z,99268.82
2018-06-18T14:33:13.268Z,99265.23
2018-06-18T14:35:48.068Z,99264.55
2018-06-18T14:38:22.712Z,99225.88
2018-06-18T14:40:52.231Z,99259.67
2018-06-18T14:43:21.681Z,99263.06
2018-06-18T14:45:51.329Z,99267.45
2018-06-18T14:48:20.941Z,99270.00
2018-06-18T14:50:50.802Z,99264.55
2018-06-18T14:53:22.422Z,99271.33
2018-06-18T14:56:31.935Z,99278.09
2018-06-18T14:59:08.846Z,99277.06
2018-06-18T15:01:38.398Z,99243.64
2018-06-18T15:04:07.835Z,99270.45
2018-06-18T15:06:37.625Z,99261.68
2018-06-18T15:09:09.565Z,99252.90
2018-06-18T15:11:39.295Z,99267.43
2018-06-18T15:14:08.965Z,99262.70
2018-06-18T15:16:38.517Z,99264.22
2018-06-18T15:19:07.998Z,99253.06
2018-06-18T15:21:42.052Z,99264.89
2018-06-18T15:24:14.924Z,99245.33
2018-06-18T15:26:44.366Z,99256.27
2018-06-18T15:29:14.001Z,99260.38
2018-06-18T15:31:43.475Z,99256.78
2018-06-18T15:34:12.839Z,99258.79
2018-06-18T15:36:42.198Z,99241.43
2018-06-18T15:39:11.743Z,99256.13
2018-06-18T15:41:41.443Z,99256.13
2018-06-18T15:44:11.115Z,99255.11
2018-06-18T15:46:40.889Z,99255.09
2018-06-18T15:49:10.746Z,99250.87
2018-06-18T15:51:40.735Z,99247.17
2018-06-18T15:54:10.096Z,99247.33
2018-06-18T15:56:39.685Z,99247.33
2018-06-18T15:59:09.281Z,99250.39
2018-06-18T16:01:39.097Z,99260.86
2018-06-18T16:04:09.703Z,99261.17
2018-06-18T16:06:39.788Z,99258.48
2018-06-18T16:09:10.255Z,99260.84
2018-06-18T16:11:40.031Z,99253.42
2018-06-18T16:14:10.095Z,99249.03
2018-06-18T16:16:40.762Z,99258.14
2018-06-18T16:19:10.652Z,99265.23
2018-06-18T16:21:40.012Z,99282.77
2018-06-18T16:24:09.378Z,99280.16
2018-06-18T16:26:38.868Z,99279.77
2018-06-18T16:29:08.452Z,99285.36
2018-06-18T16:31:37.780Z,99280.80
2018-06-18T16:34:07.564Z,99278.35
2018-06-18T16:36:37.134Z,99283.73
2018-06-18T16:39:09.340Z,99284.72
2018-06-18T16:41:38.700Z,99284.37
2018-06-18T16:44:08.556Z,99285.05
2018-06-18T16:46:38.795Z,99289.77
2018-06-18T16:49:08.726Z,99297.51
2018-06-18T16:51:38.055Z,99293.11
2018-06-18T16:54:07.432Z,99297.47
2018-06-18T16:56:36.978Z,99302.91
2018-06-18T16:59:06.610Z,99304.89
2018-06-18T17:01:36.200Z,99302.48
2018-06-18T17:04:05.820Z,99301.16
2018-06-18T17:06:35.888Z,99296.12
2018-06-18T17:09:08.249Z,99299.36
2018-06-18T17:11:38.005Z,99292.27
2018-06-18T17:14:07.943Z,99307.55
2018-06-18T17:16:37.382Z,99303.95
2018-06-18T17:19:06.911Z,99303.12
2018-06-18T17:21:36.260Z,99302.78
2018-06-18T17:24:06.713Z,99307.45
2018-06-18T17:26:36.264Z,99305.00
2018-06-18T17:29:05.882Z,99305.47
2018-06-18T17:31:35.228Z,99315.80
2018-06-18T17:34:04.795Z,99318.95
2018-06-18T17:36:34.163Z,99322.47
2018-06-18T17:39:04.760Z,99310.95
2018-06-18T17:41:34.225Z,99314.89
2018-06-18T17:46:47.597Z,99322.96
2018-06-18T17:49:17.187Z,99328.23
2018-06-18T17:51:46.536Z,99333.52
2018-06-18T17:54:15.920Z,99335.55
2018-06-18T17:56:45.292Z,99342.50
2018-06-18T17:59:17.571Z,99334.90
2018-06-18T18:01:47.257Z,99347.55
2018-06-18T18:04:16.932Z,99352.44
2018-06-18T18:06:46.319Z,99355.40
2018-06-18T18:10:18.630Z,99353.56
2018-06-18T18:12:47.979Z,99370.17
2018-06-18T18:15:17.420Z,99366.28
2018-06-18T18:17:47.087Z,99367.89
2018-06-18T18:20:16.691Z,99376.24
2018-06-18T18:22:46.292Z,99367.69
2018-06-18T18:25:16.092Z,99366.14
2018-06-18T18:27:47.271Z,99375.22
2018-06-18T18:30:16.663Z,99375.67
2018-06-18T18:32:46.256Z,99371.44
2018-06-18T18:35:15.864Z,99375.06
2018-06-18T18:37:45.760Z,99383.34
2018-06-18T18:40:15.088Z,99383.62
2018-06-18T18:42:44.681Z,99386.72
2018-06-18T18:45:14.312Z,99389.86
2018-06-18T18:47:43.688Z,99386.06
2018-06-18T18:50:13.476Z,99395.81
2018-06-18T18:52:42.824Z,99396.47
2018-06-18T18:55:32.466Z,99401.42
2018-06-18T18:58:14.783Z,99404.04
2018-06-18T19:00:45.416Z,99412.30
2018-06-18T19:03:15.680Z,99421.80
2018-06-18T19:05:45.716Z,99419.97
2018-06-18T19:08:18.615Z,99427.52
2018-06-18T19:10:48.176Z,99438.39
2018-06-18T19:13:20.883Z,99441.03
2018-06-18T19:15:52.119Z,99437.84
2018-06-18T19:18:21.948Z,99449.44
2018-06-18T19:21:00.552Z,99447.67
2018-06-18T19:23:30.475Z,99446.59
2018-06-18T19:25:59.839Z,99454.95
2018-06-18T19:28:29.759Z,99458.91
2018-06-18T19:31:02.560Z,99455.70
2018-06-18T19:33:38.010Z,99452.59
2018-06-18T19:36:08.493Z,99465.10
2018-06-18T19:38:38.938Z,99466.33
2018-06-18T19:41:10.254Z,99468.75
2018-06-18T19:43:39.821Z,99469.88
2018-06-18T19:46:09.246Z,99472.69
2018-06-18T19:48:47.015Z,99471.26
2018-06-18T19:51:16.920Z,99478.45
2018-06-18T19:53:46.259Z,99488.84
2018-06-18T19:56:16.256Z,99488.48
2018-06-18T19:58:46.059Z,99490.91
2018-06-18T20:01:15.672Z,99496.63
2018-06-18T20:03:45.289Z,99498.54
2018-06-18T20:06:14.648Z,99508.28
2018-06-18T20:08:44.181Z,99507.80
2018-06-18T20:11:13.527Z,99506.17
2018-06-18T20:13:42.876Z,99505.56
2018-06-18T20:16:12.442Z,99517.00
2018-06-18T20:18:42.008Z,99527.52
2018-06-18T20:21:11.424Z,99526.25
2018-06-18T20:23:41.174Z,99528.20
2018-06-18T20:26:13.596Z,99530.31
2018-06-18T20:28:43.196Z,99537.51
2018-06-18T20:31:12.568Z,99539.84
2018-06-18T20:33:46.610Z,99538.57
2018-06-18T20:36:17.156Z,99545.28
2018-06-18T20:38:46.785Z,99546.02
2018-06-18T20:41:16.186Z,99546.18
2018-06-18T20:43:54.138Z,99552.03
2018-06-18T20:46:23.501Z,99552.67
2018-06-18T20:48:53.161Z,99553.44
2018-06-18T20:51:23.246Z,99556.15
2018-06-18T20:53:52.829Z,99556.70
2018-06-18T20:56:22.167Z,99556.56
2018-06-18T20:58:51.939Z,99560.59
2018-06-18T21:01:21.517Z,99563.27
2018-06-18T21:03:51.160Z,99560.81
2018-06-18T21:06:20.500Z,99562.28
2018-06-18T21:08:49.834Z,99562.69
2018-06-18T21:11:19.340Z,99562.30
2018-06-18T21:13:49.136Z,99563.70
2018-06-18T21:16:18.580Z,99569.90
2018-06-18T21:18:47.913Z,99572.13
2018-06-18T21:21:17.256Z,99567.63
2018-06-18T21:23:46.620Z,99568.70
2018-06-18T21:26:16.119Z,99569.34
2018-06-18T21:28:45.703Z,99573.38
2018-06-18T21:31:15.328Z,99570.00
2018-06-18T21:33:44.923Z,99570.00
2018-06-18T21:36:14.346Z,99571.87
2018-06-18T21:38:44.114Z,99578.77
2018-06-18T21:41:13.447Z,99567.39
2018-06-18T21:43:43.031Z,99572.34
2018-06-18T21:46:12.401Z,99568.57
2018-06-18T21:48:41.940Z,99575.27
2018-06-18T21:51:11.567Z,99575.44
2018-06-18T21:53:40.928Z,99575.09
2018-06-18T21:56:10.479Z,99574.63
2018-06-18T21:58:39.851Z,99576.96
2018-06-18T22:01:09.179Z,99574.77
2018-06-18T22:03:38.714Z,99575.68
2018-06-18T22:06:08.021Z,99574.70
2018-06-18T22:08:37.581Z,99578.84
2018-06-18T22:11:06.982Z,99575.92
2018-06-18T22:13:42.028Z,99575.45
2018-06-18T22:16:16.750Z,99578.07
2018-06-18T22:18:51.676Z,99579.53
2018-06-18T22:21:26.497Z,99577.36
2018-06-18T22:24:01.648Z,99581.86
2018-06-18T22:26:36.728Z,99581.27
2018-06-18T22:29:12.145Z,99582.11
2018-06-18T22:31:46.893Z,99583.33
2018-06-18T22:34:21.613Z,99586.24
2018-06-18T22:36:57.113Z,99584.31
2018-06-18T22:39:31.903Z,99581.75
2018-06-18T22:42:06.652Z,99590.89
2018-06-18T22:44:41.403Z,99585.80
2018-06-18T22:47:16.704Z,99583.84
2018-06-18T22:49:51.432Z,99580.80
2018-06-18T22:52:26.327Z,99584.08
2018-06-18T22:55:00.979Z,99581.08
2018-06-18T22:57:36.295Z,99573.52
2018-06-18T23:00:14.775Z,99585.45
2018-06-18T23:02:49.635Z,99580.48
2018-06-18T23:05:26.350Z,99584.14
2018-06-18T23:08:01.178Z,99586.34
2018-06-18T23:10:36.080Z,99594.60
2018-06-18T23:13:10.820Z,99594.63
2018-06-18T23:15:46.024Z,99586.97
2018-06-18T23:18:20.875Z,99587.56
2018-06-18T23:20:55.609Z,99589.52
2018-06-18T23:23:30.741Z,99278.97
2018-06-18T23:26:06.803Z,99585.16
2018-06-18T23:28:51.902Z,99593.44
2018-06-18T23:31:26.866Z,99586.84
2018-06-18T23:34:01.744Z,99587.59
2018-06-18T23:36:36.884Z,99587.34
2018-06-18T23:39:12.483Z,99587.84
2018-06-18T23:41:49.699Z,99582.95
2018-06-18T23:44:24.735Z,99574.55
2018-06-18T23:46:59.529Z,99584.86
2018-06-18T23:49:34.408Z,99584.86
2018-06-18T23:52:09.246Z,99578.33
2018-06-18T23:54:44.055Z,99581.09
2018-06-18T23:57:18.807Z,99588.16
2018-06-18T23:59:53.611Z,99589.02
